Terminal Aerodrome Forecast
Issued by NWS Wilmington, OH

Current Version | Previous Version | Graphics & Text | Print | Product List | Glossary Off
Versions: 1 2 3 4 5 6 7 8 9 10 11 12 13 14 15 16 17 18 19 20 21 22

000
FTUS41 KILN 231949 AAA
TAFCVG
TAF AMD
KCVG 231949Z 2320/2424 11011G22KT P6SM VCSH BKN012 OVC060
     FM232100 10012G20KT 5SM -SHRA OVC015
     FM240000 09012G20KT P6SM VCSH OVC015
     FM240300 08012KT P6SM VCSH OVC025
     FM241200 08011KT 5SM -SHRA OVC009
     FM241800 05008KT P6SM VCSH OVC015=

USA.gov is the U.S. government's official web portal to all federal, state and local government web resources and services.